Time;durP1;ratioP1;P1;durP2;ratioP2;P2;SDS_P1;SDS_P2;PMS_P1;PMS_P2;Temp;Humidity;BMP_temperature;BMP_pressure;BME280_temperature;BME280_humidity;BME280_pressure;Samples;Min_cycle;Max_cycle;Signal;HPM_P1;HPM_P2
2021/10/18 00:00:08;;;;;;;2.95;2.75;;;18.10;65.80;;;;;;5114527;28;20587;-59
2021/10/18 00:02:33;;;;;;;3.00;2.80;;;18.10;65.80;;;;;;5114855;28;20224;-59
2021/10/18 00:04:59;;;;;;;3.05;2.85;;;18.10;65.80;;;;;;5114352;28;20540;-58
2021/10/18 00:07:24;;;;;;;2.90;2.70;;;18.00;65.70;;;;;;5114983;28;20169;-59
2021/10/18 00:09:50;;;;;;;3.42;3.13;;;18.00;65.70;;;;;;5115313;28;20165;-58
2021/10/18 00:12:16;;;;;;;3.00;2.80;;;18.10;65.80;;;;;;5114546;28;20204;-60
2021/10/18 00:14:41;;;;;;;3.28;3.08;;;18.00;65.70;;;;;;5114703;28;20269;-60
2021/10/18 00:17:07;;;;;;;3.63;3.30;;;18.00;65.70;;;;;;5115165;28;20183;-60
2021/10/18 00:19:32;;;;;;;3.13;2.80;;;18.00;65.70;;;;;;5113808;28;20161;-59
2021/10/18 00:21:58;;;;;;;3.30;3.00;;;18.00;65.60;;;;;;5115002;28;20181;-59
2021/10/18 00:24:23;;;;;;;2.92;2.72;;;18.00;65.70;;;;;;5113656;28;20570;-60
2021/10/18 00:26:49;;;;;;;2.90;2.70;;;18.00;65.70;;;;;;5114957;28;20214;-59
2021/10/18 00:29:14;;;;;;;3.10;2.80;;;18.00;65.70;;;;;;5114919;28;20173;-59
2021/10/18 00:31:40;;;;;;;3.35;3.05;;;18.00;65.70;;;;;;5113579;28;20220;-60
2021/10/18 00:34:05;;;;;;;2.72;2.53;;;18.00;65.60;;;;;;5114818;28;20169;-59
2021/10/18 00:36:31;;;;;;;3.45;3.15;;;18.00;65.60;;;;;;5114356;28;20177;-59
2021/10/18 00:38:56;;;;;;;3.17;2.88;;;18.00;65.60;;;;;;5113759;28;20540;-60
2021/10/18 00:41:22;;;;;;;3.28;2.97;;;18.00;65.60;;;;;;5114190;28;20177;-59
2021/10/18 00:43:49;;;;;;;3.17;2.88;;;18.00;65.60;;;;;;5114549;28;20169;-60
2021/10/18 00:46:20;;;;;;;3.47;2.92;;;18.00;65.60;;;;;;5113961;28;20177;-60
2021/10/18 00:48:46;;;;;;;3.13;2.83;;;18.00;65.70;;;;;;5114641;28;20255;-60
2021/10/18 00:51:11;;;;;;;4.10;3.00;;;18.00;65.60;;;;;;5114032;28;20640;-59
2021/10/18 00:53:37;;;;;;;3.30;3.00;;;17.90;65.60;;;;;;5095210;28;20176;-58
2021/10/18 00:56:02;;;;;;;3.25;3.00;;;17.90;65.60;;;;;;5096306;28;20180;-59
2021/10/18 00:58:28;;;;;;;3.33;3.13;;;17.90;65.50;;;;;;5095891;28;20172;-59
2021/10/18 01:00:53;;;;;;;3.60;3.30;;;17.90;65.50;;;;;;5094366;28;20223;-59
2021/10/18 01:03:19;;;;;;;3.38;3.08;;;17.90;65.50;;;;;;5113953;28;20197;-59
2021/10/18 01:05:45;;;;;;;3.47;3.17;;;17.90;65.60;;;;;;5113943;28;20658;-58
2021/10/18 01:08:10;;;;;;;2.90;2.70;;;17.90;65.50;;;;;;5113413;28;20177;-59
2021/10/18 01:10:36;;;;;;;3.10;2.90;;;17.90;65.50;;;;;;5113445;28;20267;-60
2021/10/18 01:13:02;;;;;;;3.58;3.25;;;17.90;65.60;;;;;;5113916;28;20539;-60
2021/10/18 01:15:27;;;;;;;2.88;2.65;;;17.90;65.60;;;;;;5094489;28;20165;-60
2021/10/18 01:17:53;;;;;;;2.95;2.75;;;17.90;65.60;;;;;;5113840;28;20169;-59
2021/10/18 01:20:32;;;;;;;2.92;2.72;;;17.90;65.60;;;;;;5113425;28;20176;-59
2021/10/18 01:22:58;;;;;;;2.90;2.70;;;17.90;65.70;;;;;;5114009;28;20638;-59
2021/10/18 01:25:23;;;;;;;3.08;2.80;;;17.90;65.60;;;;;;5113631;28;20665;-60
2021/10/18 01:27:49;;;;;;;3.17;2.90;;;17.90;65.60;;;;;;5112979;28;20540;-59
2021/10/18 01:30:15;;;;;;;3.22;2.90;;;17.90;65.60;;;;;;5112331;28;20207;-59
2021/10/18 01:32:40;;;;;;;3.13;2.83;;;17.90;65.60;;;;;;5113243;28;20210;-59
2021/10/18 01:35:07;;;;;;;2.90;2.70;;;17.80;65.60;;;;;;5112786;28;20169;-59
2021/10/18 01:37:33;;;;;;;2.92;2.70;;;17.80;65.60;;;;;;5113349;28;20183;-59
2021/10/18 01:39:58;;;;;;;2.85;2.65;;;17.90;65.60;;;;;;5095490;28;20256;-59
2021/10/18 01:42:24;;;;;;;3.38;2.88;;;17.90;65.60;;;;;;5112525;28;20638;-61
2021/10/18 01:44:49;;;;;;;3.05;2.80;;;17.80;65.60;;;;;;5113450;28;20180;-58
2021/10/18 01:47:15;;;;;;;2.85;2.65;;;17.80;65.60;;;;;;5113513;28;20165;-59
2021/10/18 01:49:40;;;;;;;3.53;3.22;;;17.80;65.50;;;;;;5112533;28;20197;-59
2021/10/18 01:52:06;;;;;;;3.30;3.00;;;17.80;65.60;;;;;;5113056;28;20652;-60
2021/10/18 01:54:31;;;;;;;3.40;3.05;;;17.80;65.50;;;;;;5113246;28;20169;-60
2021/10/18 01:56:57;;;;;;;3.10;2.90;;;17.80;65.50;;;;;;5112582;28;20176;-59
2021/10/18 01:59:22;;;;;;;2.90;2.70;;;17.80;65.50;;;;;;5112893;28;20226;-60
2021/10/18 02:01:48;;;;;;;2.88;2.63;;;17.80;65.60;;;;;;5113582;28;20238;-60
2021/10/18 02:04:13;;;;;;;2.95;2.75;;;17.80;65.60;;;;;;5112796;28;20215;-59
2021/10/18 02:06:39;;;;;;;3.20;3.00;;;17.80;65.60;;;;;;5113059;28;20203;-59
2021/10/18 02:09:04;;;;;;;3.42;3.13;;;17.80;65.50;;;;;;5113227;28;20173;-60
2021/10/18 02:11:30;;;;;;;3.22;2.92;;;17.80;66.40;;;;;;5112343;28;20205;-60
2021/10/18 02:13:55;;;;;;;3.28;2.97;;;17.80;65.50;;;;;;5116960;28;20218;-60
2021/10/18 02:16:21;;;;;;;3.03;2.72;;;17.80;65.50;;;;;;5117069;28;20230;-60
2021/10/18 02:18:47;;;;;;;2.88;2.67;;;17.80;65.50;;;;;;5116458;28;20173;-60
2021/10/18 02:21:13;;;;;;;3.00;2.80;;;17.80;65.60;;;;;;5117367;28;20264;-60
2021/10/18 02:23:38;;;;;;;2.80;2.60;;;17.70;65.50;;;;;;5116799;28;20344;-60
2021/10/18 02:26:04;;;;;;;2.88;2.65;;;17.80;65.60;;;;;;5116291;28;20589;-60
2021/10/18 02:28:29;;;;;;;3.30;3.03;;;17.80;65.60;;;;;;5116797;28;20169;-60
2021/10/18 02:30:55;;;;;;;2.80;2.60;;;17.70;65.60;;;;;;5116199;28;20201;-60
2021/10/18 02:33:20;;;;;;;2.75;2.55;;;17.80;65.60;;;;;;5116575;28;20218;-60
2021/10/18 02:35:46;;;;;;;2.80;2.60;;;17.70;65.50;;;;;;5117172;28;20176;-60
2021/10/18 02:38:14;;;;;;;3.60;3.30;;;17.70;65.50;;;;;;5116118;28;20952;-60
2021/10/18 02:40:40;;;;;;;3.47;3.17;;;17.70;66.30;;;;;;5116316;28;20647;-59
2021/10/18 02:43:06;;;;;;;2.72;2.53;;;17.70;65.50;;;;;;5117054;28;20267;-60
2021/10/18 02:45:31;;;;;;;2.90;2.70;;;17.70;65.50;;;;;;5115864;28;20182;-60
2021/10/18 02:47:57;;;;;;;2.75;2.55;;;17.70;65.50;;;;;;5116652;28;20209;-60
2021/10/18 02:50:22;;;;;;;2.75;2.55;;;17.70;65.50;;;;;;5116050;28;20169;-60
2021/10/18 02:52:48;;;;;;;2.90;2.70;;;17.70;65.60;;;;;;5116025;28;20184;-59
2021/10/18 02:55:13;;;;;;;3.53;2.97;;;17.70;65.50;;;;;;5116565;28;20208;-60
2021/10/18 02:57:39;;;;;;;3.13;2.83;;;17.70;65.60;;;;;;5116503;28;20230;-61
2021/10/18 03:00:05;;;;;;;3.03;2.83;;;17.70;65.60;;;;;;5114856;28;20188;-60
2021/10/18 03:02:30;;;;;;;3.13;2.83;;;17.70;65.50;;;;;;5115795;28;20225;-60
2021/10/18 03:04:56;;;;;;;2.78;2.50;;;17.70;65.50;;;;;;5116513;28;20236;-60
2021/10/18 03:07:22;;;;;;;2.75;2.55;;;17.70;65.60;;;;;;5115501;28;20169;-59
2021/10/18 03:09:48;;;;;;;2.67;2.50;;;17.70;65.60;;;;;;5116398;28;20252;-60
2021/10/18 03:12:13;;;;;;;2.83;2.63;;;17.70;65.60;;;;;;5116234;28;20307;-60
2021/10/18 03:14:39;;;;;;;3.22;2.92;;;17.70;65.50;;;;;;5115215;28;20272;-60
2021/10/18 03:17:04;;;;;;;2.95;2.75;;;17.70;65.60;;;;;;5116048;28;20204;-60
2021/10/18 03:19:30;;;;;;;3.55;3.25;;;17.70;65.50;;;;;;5115684;28;20196;-61
2021/10/18 03:21:55;;;;;;;2.90;2.70;;;17.60;65.40;;;;;;5115265;28;20608;-60
2021/10/18 03:24:21;;;;;;;3.00;2.78;;;17.60;65.40;;;;;;5115327;28;20698;-61
2021/10/18 03:26:46;;;;;;;3.33;3.08;;;17.70;65.50;;;;;;5116021;28;20166;-60
2021/10/18 03:29:12;;;;;;;2.97;2.78;;;17.60;65.40;;;;;;5115241;28;20181;-60
2021/10/18 03:31:37;;;;;;;3.22;2.75;;;17.60;65.50;;;;;;5115486;28;20714;-60
2021/10/18 03:34:06;;;;;;;2.78;2.58;;;17.60;65.40;;;;;;5115652;28;20174;-60
2021/10/18 03:36:31;;;;;;;3.45;3.10;;;17.60;65.40;;;;;;5114882;28;20626;-60
2021/10/18 03:38:57;;;;;;;3.40;3.10;;;17.60;65.40;;;;;;5115617;28;20181;-60
2021/10/18 03:41:22;;;;;;;3.20;2.80;;;17.60;65.40;;;;;;5114820;28;20634;-59
2021/10/18 03:43:48;;;;;;;2.95;2.75;;;17.60;65.40;;;;;;5115632;28;20242;-60
2021/10/18 03:46:13;;;;;;;2.88;2.67;;;17.60;65.50;;;;;;5115623;28;20171;-60
2021/10/18 03:48:39;;;;;;;2.92;2.72;;;17.60;65.40;;;;;;5114428;28;20207;-60
2021/10/18 03:51:04;;;;;;;3.50;3.20;;;17.60;65.40;;;;;;5115337;28;20604;-60
2021/10/18 03:53:30;;;;;;;2.85;2.65;;;17.60;66.30;;;;;;5115156;28;20188;-62
2021/10/18 03:55:55;;;;;;;3.10;2.80;;;17.60;65.40;;;;;;5114669;28;20173;-60
2021/10/18 03:58:21;;;;;;;2.72;2.53;;;17.60;65.40;;;;;;5115096;28;20568;-60
2021/10/18 04:00:46;;;;;;;3.17;2.92;;;17.60;65.50;;;;;;5115041;28;20262;-59
2021/10/18 04:03:12;;;;;;;2.90;2.70;;;17.60;65.50;;;;;;5114762;28;20227;-59
2021/10/18 04:05:38;;;;;;;3.05;2.78;;;17.60;65.50;;;;;;5114856;28;20626;-59
2021/10/18 04:08:04;;;;;;;3.10;2.90;;;17.60;65.50;;;;;;5115179;28;20535;-62
2021/10/18 04:10:32;;;;;;;3.33;2.95;;;17.60;65.40;;;;;;5114087;28;20234;-60
2021/10/18 04:12:58;;;;;;;3.03;2.72;;;17.60;65.50;;;;;;5115045;28;20177;-59
2021/10/18 04:15:24;;;;;;;3.15;2.90;;;17.60;65.50;;;;;;5114593;28;20173;-60
2021/10/18 04:17:50;;;;;;;3.17;2.88;;;17.50;65.50;;;;;;5114451;28;20530;-60
2021/10/18 04:20:15;;;;;;;3.42;3.13;;;17.50;65.40;;;;;;5115152;28;20176;-60
2021/10/18 04:22:45;;;;;;;3.05;2.83;;;17.60;65.50;;;;;;5114742;28;20177;-60
2021/10/18 04:25:11;;;;;;;2.70;2.55;;;17.50;65.40;;;;;;5114064;28;20181;-60
2021/10/18 04:27:36;;;;;;;2.72;2.53;;;17.50;65.50;;;;;;5114422;28;20546;-61
2021/10/18 04:30:03;;;;;;;2.80;2.60;;;17.50;65.50;;;;;;5114537;28;20639;-60
2021/10/18 04:32:29;;;;;;;2.65;2.45;;;17.50;65.40;;;;;;5113512;28;20705;-61
2021/10/18 04:34:54;;;;;;;2.80;2.60;;;17.60;65.40;;;;;;5113885;28;20181;-61
2021/10/18 04:37:20;;;;;;;2.85;2.60;;;17.50;65.40;;;;;;5114294;28;20177;-59
2021/10/18 04:39:45;;;;;;;2.63;2.42;;;17.50;65.40;;;;;;5113865;28;20169;-60
2021/10/18 04:42:11;;;;;;;2.78;2.58;;;17.50;65.50;;;;;;5114395;28;20512;-59
2021/10/18 04:44:37;;;;;;;3.00;2.60;;;17.50;65.50;;;;;;5113295;28;20173;-59
2021/10/18 04:47:03;;;;;;;3.05;2.85;;;17.50;65.40;;;;;;5114561;28;20270;-59
2021/10/18 04:49:29;;;;;;;2.80;2.60;;;17.50;65.40;;;;;;5114170;28;20230;-60
2021/10/18 04:51:54;;;;;;;2.67;2.47;;;17.50;65.50;;;;;;5113583;28;20208;-60
2021/10/18 04:54:20;;;;;;;2.88;2.67;;;17.50;65.40;;;;;;5114158;28;20667;-60
2021/10/18 04:56:45;;;;;;;3.05;2.85;;;17.50;65.50;;;;;;5114135;28;20704;-59
2021/10/18 04:59:11;;;;;;;2.95;2.75;;;17.50;65.40;;;;;;5113503;28;20177;-60
2021/10/18 05:01:36;;;;;;;2.63;2.42;;;17.50;65.50;;;;;;5113583;28;20270;-59
2021/10/18 05:04:02;;;;;;;3.28;2.90;;;17.40;65.40;;;;;;5114170;28;20189;-60
2021/10/18 05:06:27;;;;;;;2.75;2.55;;;17.50;65.40;;;;;;5112961;28;20173;-60
2021/10/18 05:08:54;;;;;;;2.75;2.55;;;17.50;65.40;;;;;;5114014;28;20184;-59
2021/10/18 05:11:20;;;;;;;2.80;2.60;;;17.50;65.40;;;;;;5113607;28;20639;-60
2021/10/18 05:13:45;;;;;;;2.65;2.45;;;17.40;65.40;;;;;;5113228;28;20172;-62
2021/10/18 05:16:11;;;;;;;3.03;2.78;;;17.40;65.40;;;;;;5114099;28;20696;-61
2021/10/18 05:18:36;;;;;;;2.95;2.75;;;17.40;65.40;;;;;;5113760;28;20200;-60
2021/10/18 05:21:05;;;;;;;2.75;2.60;;;17.40;65.40;;;;;;5112949;28;20193;-60
2021/10/18 05:23:34;;;;;;;2.72;2.53;;;17.40;65.40;;;;;;5113161;28;20727;-60
2021/10/18 05:26:00;;;;;;;2.78;2.53;;;17.40;65.40;;;;;;5113598;28;20635;-60
2021/10/18 05:28:26;;;;;;;2.60;2.40;;;17.40;65.40;;;;;;5112533;28;20181;-61
2021/10/18 05:30:51;;;;;;;2.83;2.63;;;17.40;65.30;;;;;;5113741;28;20257;-60
2021/10/18 05:33:17;;;;;;;3.25;3.05;;;17.40;65.20;;;;;;5113778;28;20218;-60
2021/10/18 05:35:42;;;;;;;2.78;2.58;;;17.40;65.10;;;;;;5112459;28;20173;-60
2021/10/18 05:38:08;;;;;;;3.20;2.90;;;17.40;65.20;;;;;;5113427;28;20538;-60
2021/10/18 05:40:33;;;;;;;3.17;2.78;;;17.40;65.20;;;;;;5113175;28;20169;-60
2021/10/18 05:42:59;;;;;;;2.53;2.33;;;17.40;65.20;;;;;;5112655;28;20184;-60
2021/10/18 05:45:24;;;;;;;3.03;2.83;;;17.40;65.30;;;;;;5113286;28;20572;-61
2021/10/18 05:48:01;;;;;;;2.97;2.78;;;17.40;65.20;;;;;;5112662;28;20173;-59
2021/10/18 05:50:28;;;;;;;3.00;2.80;;;17.40;65.20;;;;;;5113230;28;20180;-60
2021/10/18 05:52:54;;;;;;;2.80;2.60;;;17.40;65.20;;;;;;5113527;28;20177;-59
2021/10/18 05:55:19;;;;;;;3.03;2.83;;;17.40;65.20;;;;;;5112223;28;20175;-60
2021/10/18 05:57:50;;;;;;;2.90;2.70;;;17.40;65.10;;;;;;5113097;28;20180;-60
2021/10/18 06:00:16;;;;;;;2.75;2.65;;;17.40;65.20;;;;;;5113226;28;20268;-60
2021/10/18 06:02:42;;;;;;;3.22;3.03;;;17.40;65.10;;;;;;5112014;28;20659;-59
2021/10/18 06:05:07;;;;;;;2.80;2.60;;;17.50;65.20;;;;;;5113321;28;20574;-59
2021/10/18 06:07:33;;;;;;;3.15;2.95;;;17.40;65.20;;;;;;5112839;28;20180;-59
2021/10/18 06:09:58;;;;;;;3.08;2.78;;;17.40;65.10;;;;;;5112415;28;20165;-59
2021/10/18 06:12:24;;;;;;;2.65;2.45;;;17.40;65.20;;;;;;5112982;28;20236;-59
2021/10/18 06:14:49;;;;;;;2.47;2.38;;;17.40;65.20;;;;;;5113287;28;20252;-59
2021/10/18 06:17:15;;;;;;;2.90;2.60;;;17.40;65.20;;;;;;5112775;28;20631;-59
2021/10/18 06:19:40;;;;;;;2.90;2.70;;;17.30;65.20;;;;;;5112751;28;20173;-60
2021/10/18 06:22:06;;;;;;;2.90;2.70;;;17.30;65.10;;;;;;5113073;28;20222;-59
2021/10/18 06:24:32;;;;;;;2.90;2.70;;;17.40;65.20;;;;;;5111909;28;20177;-60
2021/10/18 06:26:57;;;;;;;3.38;3.08;;;17.30;65.10;;;;;;5113228;28;20635;-59
2021/10/18 06:29:25;;;;;;;3.33;3.08;;;17.30;65.10;;;;;;5112924;28;20169;-59
2021/10/18 06:31:51;;;;;;;3.10;2.90;;;17.30;65.10;;;;;;5112356;28;20216;-59
2021/10/18 06:34:17;;;;;;;2.95;2.75;;;17.30;65.10;;;;;;5113078;28;20173;-59
2021/10/18 06:36:42;;;;;;;2.90;2.70;;;17.30;65.20;;;;;;5112573;28;20173;-58
2021/10/18 06:39:08;;;;;;;3.20;2.90;;;17.30;65.10;;;;;;5112059;28;20562;-58
2021/10/18 06:41:33;;;;;;;2.70;2.50;;;17.30;65.20;;;;;;5112453;28;20639;-58
2021/10/18 06:43:59;;;;;;;3.28;3.08;;;17.30;65.20;;;;;;5113071;28;20177;-59
2021/10/18 06:46:24;;;;;;;3.20;2.90;;;17.30;65.10;;;;;;5112026;28;20169;-59
2021/10/18 06:48:50;;;;;;;3.05;2.83;;;17.30;65.10;;;;;;5113078;28;20172;-59
2021/10/18 06:51:15;;;;;;;3.17;2.97;;;17.30;65.10;;;;;;5112125;28;20212;-61
2021/10/18 06:53:41;;;;;;;3.10;2.60;;;17.30;65.10;;;;;;5112517;28;20173;-61
2021/10/18 06:56:06;;;;;;;5.85;3.17;;;17.30;65.50;;;;;;5113059;28;20173;-62
2021/10/18 06:58:32;;;;;;;2.90;2.67;;;17.40;65.40;;;;;;5113211;28;20172;-62
2021/10/18 07:00:58;;;;;;;2.80;2.60;;;17.40;65.40;;;;;;5116490;28;20224;-61
2021/10/18 07:03:23;;;;;;;3.60;3.30;;;17.40;65.30;;;;;;5116127;28;20631;-61
2021/10/18 07:05:49;;;;;;;5.40;3.00;;;17.40;65.20;;;;;;5115719;28;20181;-61
2021/10/18 07:08:16;;;;;;;3.45;3.15;;;17.40;65.80;;;;;;5116268;28;20176;-61
2021/10/18 07:10:42;;;;;;;3.42;3.22;;;17.40;65.50;;;;;;5116015;28;20557;-61
2021/10/18 07:13:09;;;;;;;5.30;3.28;;;17.40;65.30;;;;;;5115704;28;20635;-62
2021/10/18 07:15:36;;;;;;;5.97;3.47;;;17.40;65.20;;;;;;5115998;28;20173;-61
2021/10/18 07:18:01;;;;;;;3.72;3.42;;;17.40;66.10;;;;;;5116170;28;20181;-61
2021/10/18 07:20:27;;;;;;;6.07;3.22;;;17.40;65.40;;;;;;5115062;28;20313;-62
2021/10/18 07:22:56;;;;;;;5.30;3.42;;;17.40;65.50;;;;;;5116050;28;20169;-61
2021/10/18 07:25:21;;;;;;;3.22;3.03;;;17.40;65.50;;;;;;5115698;28;20535;-61
2021/10/18 07:27:47;;;;;;;3.35;3.05;;;17.40;65.40;;;;;;5115290;28;20679;-60
2021/10/18 07:30:13;;;;;;;3.90;3.22;;;17.40;65.30;;;;;;5116037;28;20173;-60
2021/10/18 07:32:42;;;;;;;4.22;3.83;;;17.40;65.20;;;;;;5115572;28;20623;-61
2021/10/18 07:35:08;;;;;;;3.63;3.35;;;17.40;65.30;;;;;;5114921;28;20208;-61
2021/10/18 07:37:34;;;;;;;3.67;3.38;;;17.40;65.30;;;;;;5115357;28;20188;-62
2021/10/18 07:39:59;;;;;;;4.05;3.58;;;17.40;65.20;;;;;;5115722;28;20548;-61
2021/10/18 07:42:25;;;;;;;4.95;3.78;;;17.50;65.40;;;;;;5114881;28;20187;-61
2021/10/18 07:44:51;;;;;;;3.78;3.40;;;17.50;65.40;;;;;;5115715;28;20173;-61
2021/10/18 07:47:16;;;;;;;4.60;3.60;;;17.50;65.40;;;;;;5115723;28;20549;-61
2021/10/18 07:49:42;;;;;;;3.92;3.53;;;17.50;65.40;;;;;;5114456;28;20670;-61
2021/10/18 07:52:11;;;;;;;4.10;3.72;;;17.50;65.40;;;;;;5115339;28;20261;-61
2021/10/18 07:54:39;;;;;;;4.10;3.58;;;17.50;65.40;;;;;;5114616;28;20244;-61
2021/10/18 07:57:04;;;;;;;4.00;3.60;;;17.50;65.30;;;;;;5115528;28;20188;-61
2021/10/18 07:59:30;;;;;;;4.03;3.40;;;17.50;65.40;;;;;;5114947;28;20165;-61
2021/10/18 08:01:55;;;;;;;4.30;3.90;;;17.50;65.30;;;;;;5114464;28;20729;-61
2021/10/18 08:04:21;;;;;;;3.90;3.60;;;17.50;65.30;;;;;;5114920;28;20623;-62
2021/10/18 08:06:46;;;;;;;3.78;3.47;;;17.50;65.30;;;;;;5115068;28;20627;-61
2021/10/18 08:09:12;;;;;;;3.70;3.40;;;17.50;65.40;;;;;;5114290;28;20169;-61
2021/10/18 08:11:38;;;;;;;3.67;3.38;;;17.50;65.40;;;;;;5114889;28;20216;-61
2021/10/18 08:14:03;;;;;;;4.55;4.03;;;17.50;65.50;;;;;;5115186;28;20177;-63
2021/10/18 08:16:29;;;;;;;5.78;3.90;;;17.50;65.30;;;;;;5113961;28;20169;-60
2021/10/18 08:18:54;;;;;;;4.70;3.55;;;17.60;65.40;;;;;;5114875;28;20631;-59
2021/10/18 08:21:22;;;;;;;5.00;4.05;;;17.60;65.30;;;;;;5114691;28;20187;-60
2021/10/18 08:23:47;;;;;;;5.97;4.20;;;17.60;65.30;;;;;;5114246;28;20523;-58
2021/10/18 08:26:13;;;;;;;4.15;3.75;;;17.60;65.40;;;;;;5114744;28;20631;-59
2021/10/18 08:28:38;;;;;;;5.93;3.90;;;17.60;65.50;;;;;;5114557;28;20181;-59
2021/10/18 08:31:04;;;;;;;4.10;3.80;;;17.70;65.80;;;;;;5113926;28;20216;-60
2021/10/18 08:33:29;;;;;;;4.47;3.80;;;17.60;65.60;;;;;;5114297;28;20184;-60
2021/10/18 08:35:55;;;;;;;5.70;4.30;;;17.60;65.60;;;;;;5114592;28;20177;-61
2021/10/18 08:38:46;;;;;;;5.57;3.83;;;17.60;65.70;;;;;;5113427;28;20176;-61
2021/10/18 08:41:16;;;;;;;4.55;4.13;;;17.60;65.90;;;;;;5114394;28;20642;-61
2021/10/18 08:46:07;;;;;;;5.88;3.90;;;17.60;65.90;;;;;;5114344;28;20302;-61
2021/10/18 08:48:33;;;;;;;4.10;3.80;;;17.70;66.10;;;;;;5113999;28;20177;-61
2021/10/18 08:50:58;;;;;;;3.92;3.40;;;17.70;66.10;;;;;;5113505;28;20216;-61
2021/10/18 08:53:24;;;;;;;4.38;3.20;;;17.70;66.10;;;;;;5114179;28;20180;-61
2021/10/18 08:55:49;;;;;;;3.88;3.58;;;17.70;66.00;;;;;;5114256;28;20662;-62
2021/10/18 08:58:15;;;;;;;4.75;4.30;;;17.70;66.10;;;;;;5113512;28;20532;-61
2021/10/18 09:00:42;;;;;;;3.47;3.17;;;17.70;66.00;;;;;;5113650;28;20634;-61
2021/10/18 09:03:29;;;;;;;4.43;3.58;;;17.80;65.90;;;;;;5114080;28;20177;-62
2021/10/18 09:06:16;;;;;;;4.47;4.03;;;17.80;66.80;;;;;;5113219;28;20607;-61
2021/10/18 09:09:02;;;;;;;4.22;3.83;;;17.80;66.00;;;;;;5113571;28;20175;-61
2021/10/18 09:11:28;;;;;;;4.40;3.72;;;17.80;66.00;;;;;;5113798;28;20209;-61
2021/10/18 09:13:53;;;;;;;4.03;3.72;;;17.80;66.00;;;;;;5113150;28;20169;-61
2021/10/18 09:16:33;;;;;;;4.10;3.70;;;17.80;66.00;;;;;;5113510;28;20202;-60
2021/10/18 09:19:05;;;;;;;4.18;3.78;;;17.80;65.90;;;;;;5113363;28;20540;-61
2021/10/18 09:21:33;;;;;;;3.80;3.50;;;17.90;65.70;;;;;;5112938;28;20184;-61
2021/10/18 09:24:00;;;;;;;4.20;3.80;;;17.90;65.60;;;;;;5113744;28;20631;-60
2021/10/18 09:26:26;;;;;;;3.80;3.50;;;17.90;65.50;;;;;;5112835;28;20215;-59
2021/10/18 09:28:55;;;;;;;5.72;4.20;;;18.00;65.50;;;;;;5113811;28;20210;-59
2021/10/18 09:31:20;;;;;;;3.75;3.38;;;18.00;65.50;;;;;;5113474;28;20271;-60
2021/10/18 09:33:57;;;;;;;5.03;4.10;;;18.00;65.50;;;;;;5113124;28;20173;-61
2021/10/18 09:36:30;;;;;;;3.72;3.42;;;18.00;65.50;;;;;;5113452;28;20179;-61
2021/10/18 09:39:16;;;;;;;3.53;3.30;;;18.00;65.50;;;;;;5113495;28;20567;-60
2021/10/18 09:41:43;;;;;;;4.18;3.63;;;18.00;65.50;;;;;;5112529;28;20177;-60
2021/10/18 09:44:19;;;;;;;4.63;3.42;;;18.00;65.60;;;;;;5113544;28;20173;-60
2021/10/18 10:53:08;;;;;;;3.97;3.47;;;18.00;65.50;;;;;;5096055;28;20208;-65
2021/10/18 10:55:34;;;;;;;6.95;3.78;;;18.10;65.60;;;;;;5078046;28;20181;-65
2021/10/18 10:58:01;;;;;;;4.45;3.50;;;18.10;65.60;;;;;;5095681;28;20184;-65
2021/10/18 11:00:33;;;;;;;3.65;3.35;;;18.10;65.60;;;;;;5095867;28;20261;-66
2021/10/18 11:03:23;;;;;;;6.85;3.55;;;18.10;65.60;;;;;;5096368;28;20170;-62
2021/10/18 11:05:59;;;;;;;4.82;3.28;;;18.10;65.50;;;;;;5095224;28;20713;-61
2021/10/18 11:08:35;;;;;;;4.28;3.47;;;18.20;65.50;;;;;;5095444;28;20710;-62
2021/10/18 11:11:11;;;;;;;7.82;3.83;;;18.20;65.50;;;;;;5095862;28;20719;-62
2021/10/18 11:13:57;;;;;;;6.22;3.72;;;18.20;65.40;;;;;;5094692;28;20235;-61
2021/10/18 11:16:31;;;;;;;4.72;3.70;;;18.30;65.40;;;;;;5095660;28;20165;-61
2021/10/18 11:19:00;;;;;;;5.38;3.83;;;18.30;65.40;;;;;;5095187;28;20169;-61
2021/10/18 11:21:32;;;;;;;5.25;3.70;;;18.30;65.40;;;;;;5095471;28;20174;-61
2021/10/18 11:24:05;;;;;;;4.80;3.17;;;18.30;65.40;;;;;;5095796;28;20170;-61
2021/10/18 11:26:34;;;;;;;4.20;3.42;;;18.30;65.40;;;;;;5094550;28;20244;-61
2021/10/18 11:29:01;;;;;;;5.70;3.60;;;18.30;65.30;;;;;;5095610;28;20198;-63
2021/10/18 11:43:23;;;;;;;5.20;3.28;;;18.40;64.70;;;;;;5110492;27;20482;-65
2021/10/18 11:45:53;;;;;;;5.45;4.00;;;18.30;65.80;;;;;;5089665;28;20546;-65
2021/10/18 11:48:21;;;;;;;6.43;3.90;;;18.30;65.70;;;;;;5089978;28;20201;-66
2021/10/18 11:50:47;;;;;;;7.00;3.97;;;18.30;65.60;;;;;;5089106;28;20210;-65
2021/10/18 11:53:20;;;;;;;4.45;3.95;;;18.30;65.60;;;;;;5089249;28;20177;-65
2021/10/18 11:55:53;;;;;;;6.65;3.75;;;18.30;65.60;;;;;;5090195;28;20181;-65
2021/10/18 11:58:26;;;;;;;4.63;4.13;;;18.30;65.60;;;;;;5089957;28;20541;-66
2021/10/18 12:01:02;;;;;;;4.47;3.83;;;18.30;65.60;;;;;;5089458;28;20227;-63
2021/10/18 12:03:29;;;;;;;5.50;3.80;;;18.30;65.50;;;;;;5090113;28;20170;-62
2021/10/18 12:05:56;;;;;;;4.80;3.80;;;18.30;65.30;;;;;;5089930;28;20611;-67
2021/10/18 12:08:26;;;;;;;6.22;4.53;;;18.30;65.20;;;;;;5088942;28;20257;-67
2021/10/18 12:10:51;;;;;;;5.13;4.35;;;18.20;65.20;;;;;;5089954;28;20612;-67
2021/10/18 12:13:26;;;;;;;5.53;4.45;;;18.20;65.10;;;;;;5088723;28;20178;-67
2021/10/18 12:16:03;;;;;;;7.40;3.78;;;18.20;65.00;;;;;;5089902;28;20189;-67
2021/10/18 12:18:50;;;;;;;4.75;4.22;;;18.20;65.00;;;;;;5089709;28;20170;-66
2021/10/18 12:21:23;;;;;;;5.00;4.20;;;18.20;64.90;;;;;;5088971;28;20182;-65
2021/10/18 12:23:50;;;;;;;5.07;4.43;;;18.20;64.90;;;;;;5089855;28;20205;-66
2021/10/18 12:26:40;;;;;;;6.72;4.05;;;18.20;64.90;;;;;;5089319;28;20715;-66
2021/10/18 12:29:10;;;;;;;5.95;4.35;;;18.20;64.80;;;;;;5077554;28;20183;-66
2021/10/18 12:31:40;;;;;;;5.20;4.70;;;18.20;64.80;;;;;;5089540;28;20239;-66
2021/10/18 12:34:07;;;;;;;4.43;4.07;;;18.20;64.80;;;;;;5089306;28;20176;-67
2021/10/18 12:36:46;;;;;;;4.43;3.65;;;18.20;64.70;;;;;;5088728;28;20513;-67
2021/10/18 12:39:12;;;;;;;5.28;4.70;;;18.20;64.80;;;;;;5089097;28;20176;-67
2021/10/18 12:41:42;;;;;;;4.28;3.95;;;18.20;64.70;;;;;;5087100;28;20221;-67
2021/10/18 12:44:09;;;;;;;7.60;4.40;;;18.20;64.70;;;;;;5076239;28;20257;-67
2021/10/18 12:46:38;;;;;;;6.22;4.32;;;18.20;64.60;;;;;;5074688;28;20541;-67
2021/10/18 12:49:05;;;;;;;5.07;4.30;;;18.20;64.70;;;;;;5074732;28;20178;-67
2021/10/18 12:51:39;;;;;;;5.20;4.55;;;18.20;64.60;;;;;;5075712;28;20210;-67
2021/10/18 12:54:17;;;;;;;4.40;4.00;;;18.20;64.60;;;;;;5075332;28;20170;-67
2021/10/18 12:56:42;;;;;;;4.20;3.80;;;18.20;64.60;;;;;;5074870;28;20198;-67
2021/10/18 12:59:08;;;;;;;4.20;3.80;;;18.20;64.60;;;;;;5075110;28;20652;-67
2021/10/18 13:01:33;;;;;;;4.43;4.03;;;18.10;64.50;;;;;;5075555;28;20269;-67
2021/10/18 13:04:18;;;;;;;4.85;4.43;;;18.20;64.60;;;;;;5073351;28;20202;-67
2021/10/18 13:06:43;;;;;;;5.38;4.53;;;18.10;64.40;;;;;;5075230;28;20511;-67
2021/10/18 13:09:09;;;;;;;4.82;4.28;;;18.10;64.30;;;;;;5074964;28;20167;-67
2021/10/18 13:11:40;;;;;;;4.45;4.05;;;18.10;64.40;;;;;;5074641;28;20260;-67
2021/10/18 13:14:06;;;;;;;4.97;4.47;;;18.10;64.40;;;;;;5075051;28;20173;-68
2021/10/18 13:16:31;;;;;;;6.40;4.13;;;18.10;64.20;;;;;;5074615;28;20174;-64
2021/10/18 13:18:57;;;;;;;5.72;4.15;;;18.20;64.30;;;;;;5075150;28;20225;-64
2021/10/18 13:21:22;;;;;;;4.53;3.83;;;18.20;64.50;;;;;;5074837;28;20274;-64
2021/10/18 13:23:48;;;;;;;6.90;4.80;;;18.20;64.40;;;;;;5073203;28;20166;-63
2021/10/18 13:26:13;;;;;;;5.15;4.65;;;18.20;64.30;;;;;;5074458;28;20175;-64
2021/10/18 13:28:39;;;;;;;5.70;5.10;;;18.20;64.40;;;;;;5075033;28;20715;-63
2021/10/18 13:31:04;;;;;;;6.10;4.68;;;18.20;64.20;;;;;;5073759;28;20190;-63
2021/10/18 13:33:30;;;;;;;6.32;5.32;;;18.10;63.80;;;;;;5074897;28;20248;-63
2021/10/18 13:35:55;;;;;;;7.47;5.03;;;18.10;63.40;;;;;;5074608;28;20163;-63
2021/10/18 13:38:21;;;;;;;7.57;4.82;;;18.10;63.50;;;;;;5073661;28;20234;-63
2021/10/18 13:40:46;;;;;;;6.35;4.95;;;18.10;63.50;;;;;;5074795;28;20640;-63
2021/10/18 13:43:15;;;;;;;5.30;4.60;;;18.10;63.50;;;;;;5074027;28;20241;-63
2021/10/18 13:45:40;;;;;;;5.45;4.45;;;18.10;63.40;;;;;;5073796;28;20171;-64
2021/10/18 13:48:06;;;;;;;6.60;4.70;;;18.10;63.30;;;;;;5074231;28;20236;-63
2021/10/18 13:50:31;;;;;;;6.47;4.88;;;18.10;63.50;;;;;;5074300;28;20651;-64
2021/10/18 13:52:57;;;;;;;7.13;4.80;;;18.10;63.40;;;;;;5073932;28;20185;-64
2021/10/18 13:55:23;;;;;;;5.25;4.20;;;18.10;63.50;;;;;;5073398;28;20177;-63
2021/10/18 13:57:49;;;;;;;5.65;4.97;;;18.10;63.50;;;;;;5074345;28;20175;-63
2021/10/18 14:00:14;;;;;;;5.80;4.35;;;18.10;63.60;;;;;;5073061;28;20527;-63
2021/10/18 14:02:40;;;;;;;5.30;4.80;;;18.00;63.60;;;;;;5074182;28;20179;-63
2021/10/18 14:05:11;;;;;;;4.50;4.10;;;18.10;63.60;;;;;;5073683;28;20175;-63
2021/10/18 14:07:37;;;;;;;5.20;4.65;;;18.10;63.50;;;;;;5073610;28;20261;-63